Impacts METAR Board
IDs:

KORD - Chicago/O'Hare Intl, IL, US

Updated at: 2000 UTC 22 Apr 2018
Potential Impact None Slight Moderate High
Time 22/08Z 22/09Z 22/10Z 22/11Z 22/12Z 22/13Z 22/14Z 22/15Z 22/16Z 22/17Z 22/18Z 22/19Z 22/20Z
Temp44 44 44 42 43 45 49 53 56 58 58 60 60
Dewpt20 19 20 24 25 27 28 21 23 24 24 24 26
Altim30.33 30.34 30.33 30.34 30.36 30.36 30.36 30.36 30.35 30.33 30.32 30.31 30.28
VIS10 10 10 10 10 10 10 10 10 10 10 10 10
CIG130 130 120 130 130 130 240 240 240 240 240 240 240
CoverOVCOVCOVCBKNBKNBKNBKNBKNBKNBKNBKNBKNBKN
FltCatVFRVFRVFRVFRVFRVFRVFRVFRVFRVFRVFRVFRVFR
WX--------------------------
WDir607070205070908080701009060
WSpd8 4 6 7 7 6 6 8 12 13 14 13 11
WGst-- -- -- -- -- -- -- -- -- -- -- -- --
Raw hourly METARs
KORD 220751Z 06008KT 10SM BKN130 OVC250 07/M07 A3033 RMK AO2 SLP274 T00671067
KORD 220851Z 07004KT 10SM BKN130 OVC250 07/M07 A3034 RMK AO2 SLP276 T00671072 55009
KORD 220951Z 07006KT 10SM BKN120 OVC250 07/M07 A3033 RMK AO2 SLP272 T00671067
KORD 221051Z 02007KT 10SM BKN130 BKN250 06/M04 A3034 RMK AO2 SLP276 T00561044
KORD 221151Z 05007KT 10SM BKN130 BKN250 06/M04 A3036 RMK AO2 SLP284 T00611039 10072 20056 53006
KORD 221251Z 07006KT 10SM BKN130 BKN250 07/M03 A3036 RMK AO2 SLP284 T00721028
KORD 221351Z 09006KT 10SM SCT130 BKN240 09/M02 A3036 RMK AO2 SLP285 T00941022
KORD 221451Z 08008KT 10SM FEW130 BKN240 12/M06 A3036 RMK AO2 SLP284 T01171061 50003
KORD 221551Z 08012KT 10SM FEW130 BKN240 13/M05 A3035 RMK AO2 SLP280 T01331050
KORD 221651Z 07013KT 10SM FEW130 BKN240 14/M04 A3033 RMK AO2 SLP274 T01441044
KORD 221751Z 10014KT 10SM BKN240 14/M04 A3032 RMK AO2 SLP268 T01441044 10150 20061 58016
KORD 221851Z 09013KT 10SM BKN240 16/M04 A3031 RMK AO2 SLP264 T01561044
KORD 221951Z 06011KT 030V090 10SM BKN240 16/M03 A3028 RMK AO2 SLP256 T01561033



Page loaded:  20:13 UTC  |   01:13 PM Pacific  |   02:13 PM Mountain  |   03:13 PM Central  |   04:13 PM Eastern

 

ADVISORIES

FORECASTS

FORECASTS

OBSERVATIONS

USER TOOLS

ABOUT US